Time;durP1;ratioP1;P1;durP2;ratioP2;P2;SDS_P1;SDS_P2;PMS_P1;PMS_P2;Temp;Humidity;BMP_temperature;BMP_pressure;BME280_temperature;BME280_humidity;BME280_pressure;Samples;Min_cycle;Max_cycle;Signal;HPM_P1;HPM_P2
2023/04/07 00:00:44;;;;;;;13.95;8.38;;;7.60;68.40;;;;;;5020077;28;20405;-75
2023/04/07 00:03:11;;;;;;;11.73;8.50;;;7.60;68.50;;;;;;5020388;28;20057;-72
2023/04/07 00:05:37;;;;;;;15.15;8.98;;;7.60;69.50;;;;;;5000875;28;20119;-71
2023/04/07 00:08:07;;;;;;;12.02;8.77;;;7.50;68.80;;;;;;5023230;28;20523;-72
2023/04/07 00:10:33;;;;;;;14.13;9.07;;;7.50;69.10;;;;;;5021634;28;20045;-75
2023/04/07 00:12:59;;;;;;;12.55;8.60;;;7.50;69.30;;;;;;5018427;28;20110;-73
2023/04/07 00:15:25;;;;;;;16.33;9.15;;;7.50;69.40;;;;;;5018986;28;20176;-75
2023/04/07 00:17:51;;;;;;;12.73;8.45;;;7.50;69.30;;;;;;5021282;28;20133;-72
2023/04/07 00:20:17;;;;;;;13.77;9.40;;;7.50;69.50;;;;;;5041671;28;20025;-72
2023/04/07 00:22:42;;;;;;;12.05;8.65;;;7.50;69.60;;;;;;5018023;28;20052;-72
2023/04/07 00:25:09;;;;;;;14.32;8.82;;;7.40;69.70;;;;;;5018147;28;20041;-72
2023/04/07 00:27:34;;;;;;;12.98;8.93;;;7.40;69.60;;;;;;5019768;28;20034;-72
2023/04/07 00:30:00;;;;;;;13.65;8.40;;;7.30;69.80;;;;;;5015030;28;20044;-74
2023/04/07 00:32:26;;;;;;;13.20;8.80;;;7.40;70.20;;;;;;5012983;28;20168;-72
2023/04/07 00:34:51;;;;;;;14.73;8.70;;;7.30;70.20;;;;;;5038338;28;20052;-72
2023/04/07 00:37:18;;;;;;;13.80;8.93;;;7.30;70.20;;;;;;5018947;28;20140;-73
2023/04/07 00:39:45;;;;;;;14.38;9.23;;;7.30;70.40;;;;;;5019156;28;20515;-72
2023/04/07 00:42:10;;;;;;;14.43;9.10;;;7.20;70.60;;;;;;5018488;28;20034;-71
2023/04/07 00:44:36;;;;;;;13.30;9.00;;;7.20;70.50;;;;;;5018177;28;20033;-72
2023/04/07 00:47:02;;;;;;;16.05;9.80;;;7.20;71.20;;;;;;5018904;28;20452;-72
2023/04/07 00:49:28;;;;;;;14.23;9.48;;;7.20;71.00;;;;;;5017048;28;20512;-73
2023/04/07 00:51:55;;;;;;;11.52;8.60;;;7.20;70.90;;;;;;5019613;28;20065;-73
2023/04/07 00:54:22;;;;;;;14.98;9.18;;;7.20;71.30;;;;;;5019194;28;20071;-72
2023/04/07 00:56:48;;;;;;;12.98;9.10;;;7.20;71.30;;;;;;5019144;28;20022;-74
2023/04/07 00:59:14;;;;;;;13.73;9.30;;;7.10;71.30;;;;;;5015002;28;20040;-76
2023/04/07 01:01:49;;;;;;;15.13;8.70;;;7.10;71.70;;;;;;5018153;28;20026;-72
2023/04/07 01:04:18;;;;;;;13.85;9.15;;;7.10;71.60;;;;;;5022614;28;20052;-75
2023/04/07 01:06:49;;;;;;;13.93;8.30;;;7.10;71.50;;;;;;5015791;28;20049;-75
2023/04/07 01:09:24;;;;;;;15.07;9.38;;;7.10;72.00;;;;;;5018303;28;20045;-77
2023/04/07 01:12:04;;;;;;;14.07;8.80;;;7.00;71.80;;;;;;5019390;28;20513;-73
2023/04/07 01:14:41;;;;;;;14.27;9.23;;;7.00;72.00;;;;;;5016789;28;20037;-73
2023/04/07 01:17:11;;;;;;;13.43;8.20;;;7.00;72.10;;;;;;5018498;28;20051;-73
2023/04/07 01:20:07;;;;;;;12.77;8.30;;;7.00;72.50;;;;;;5011451;28;20048;-77
2023/04/07 01:22:42;;;;;;;13.18;8.02;;;7.00;72.60;;;;;;5020250;28;20030;-75
2023/04/07 01:25:32;;;;;;;12.73;8.82;;;7.00;72.60;;;;;;5015414;28;20092;-72
2023/04/07 01:28:02;;;;;;;17.02;8.70;;;6.90;72.70;;;;;;5018952;28;20040;-76
2023/04/07 01:30:30;;;;;;;14.50;8.85;;;6.90;73.20;;;;;;5014630;28;20714;-73
2023/04/07 01:32:58;;;;;;;12.57;8.80;;;6.90;73.10;;;;;;5018301;28;20117;-73
2023/04/07 01:35:28;;;;;;;11.98;8.48;;;6.90;73.20;;;;;;5047219;28;20036;-77
2023/04/07 01:37:55;;;;;;;12.48;8.85;;;6.80;73.70;;;;;;5017716;28;20497;-74
2023/04/07 01:40:21;;;;;;;13.57;8.57;;;6.80;73.40;;;;;;5016399;28;20112;-74
2023/04/07 01:42:48;;;;;;;10.82;7.95;;;6.70;73.80;;;;;;5018859;28;20055;-72
2023/04/07 01:45:16;;;;;;;14.15;8.55;;;6.70;74.40;;;;;;5018589;28;20052;-73
2023/04/07 01:47:43;;;;;;;11.93;8.05;;;6.70;74.30;;;;;;5015046;28;20382;-73
2023/04/07 01:50:11;;;;;;;14.48;8.45;;;6.60;74.40;;;;;;5016404;28;20118;-73
2023/04/07 01:52:38;;;;;;;10.63;7.88;;;6.60;74.50;;;;;;5016733;28;20026;-74
2023/04/07 01:55:05;;;;;;;12.52;7.93;;;6.60;74.50;;;;;;5015249;28;20502;-73
2023/04/07 01:57:31;;;;;;;10.30;7.90;;;6.60;74.70;;;;;;5016363;28;20036;-72
2023/04/07 01:59:57;;;;;;;15.52;8.40;;;6.60;74.60;;;;;;5017354;28;20030;-72
2023/04/07 02:02:23;;;;;;;11.85;7.03;;;6.60;74.80;;;;;;5015299;28;20084;-73
2023/04/07 02:04:55;;;;;;;12.18;8.00;;;6.50;75.10;;;;;;5012801;28;20057;-74
2023/04/07 02:07:38;;;;;;;10.38;7.18;;;6.50;75.40;;;;;;5019214;28;20021;-71
2023/04/07 02:10:07;;;;;;;11.65;7.63;;;6.50;75.80;;;;;;4998643;28;20472;-74
2023/04/07 02:12:36;;;;;;;14.18;7.70;;;6.50;76.00;;;;;;5016831;28;20091;-74
2023/04/07 02:15:04;;;;;;;14.30;8.07;;;6.40;76.30;;;;;;5016177;28;20037;-72
2023/04/07 02:17:33;;;;;;;12.23;7.90;;;6.40;76.40;;;;;;5013900;28;20022;-74
2023/04/07 02:20:01;;;;;;;10.68;7.30;;;6.30;76.70;;;;;;5043314;28;20033;-73
2023/04/07 02:22:27;;;;;;;10.43;7.22;;;6.30;76.90;;;;;;5017421;28;20080;-76
2023/04/07 02:24:53;;;;;;;12.23;7.30;;;6.30;76.80;;;;;;5021569;28;20117;-73
2023/04/07 02:27:19;;;;;;;13.25;7.45;;;6.30;77.20;;;;;;5023998;28;20068;-74
2023/04/07 02:29:45;;;;;;;11.05;7.10;;;6.30;77.50;;;;;;5016099;28;20034;-72
2023/04/07 02:32:11;;;;;;;10.43;7.20;;;6.20;78.10;;;;;;5012584;28;20021;-74
2023/04/07 02:34:37;;;;;;;9.77;6.68;;;6.30;78.00;;;;;;5010706;28;20038;-75
2023/04/07 02:37:02;;;;;;;10.05;7.13;;;6.20;78.10;;;;;;5015858;28;20096;-73
2023/04/07 02:39:28;;;;;;;10.20;7.35;;;6.20;78.20;;;;;;5014176;28;20439;-71
2023/04/07 02:41:54;;;;;;;12.38;6.65;;;6.20;78.00;;;;;;5014204;28;20197;-74
2023/04/07 02:44:20;;;;;;;9.35;6.57;;;6.20;78.10;;;;;;5015576;28;20029;-75
2023/04/07 02:46:45;;;;;;;10.95;7.25;;;6.20;78.40;;;;;;5012188;28;20113;-72
2023/04/07 02:49:11;;;;;;;12.02;6.82;;;6.10;78.50;;;;;;5011397;28;20397;-72
2023/04/07 02:51:36;;;;;;;8.68;5.70;;;6.00;79.00;;;;;;5014584;28;20650;-72
2023/04/07 02:54:02;;;;;;;11.07;6.43;;;6.10;79.30;;;;;;5015697;28;20030;-72
2023/04/07 02:56:28;;;;;;;7.95;5.80;;;6.00;79.30;;;;;;5016056;28;20033;-74
2023/04/07 02:58:54;;;;;;;11.60;7.18;;;6.00;79.50;;;;;;5016144;28;20030;-74
2023/04/07 03:01:20;;;;;;;11.38;6.63;;;6.00;79.70;;;;;;5013619;28;20044;-72
2023/04/07 03:03:46;;;;;;;8.95;6.05;;;6.00;79.80;;;;;;5018835;28;20029;-72
2023/04/07 03:06:12;;;;;;;9.20;6.25;;;6.00;80.10;;;;;;5018016;28;20095;-71
2023/04/07 03:08:38;;;;;;;8.23;6.32;;;6.00;80.40;;;;;;5017819;28;20040;-73
2023/04/07 03:11:04;;;;;;;10.05;6.15;;;6.00;80.10;;;;;;5015972;28;20021;-74
2023/04/07 03:13:31;;;;;;;8.15;5.97;;;5.90;80.20;;;;;;5017883;28;20494;-71
2023/04/07 03:15:57;;;;;;;9.35;6.40;;;5.90;80.90;;;;;;5015547;28;20058;-75
2023/04/07 03:18:22;;;;;;;9.70;6.65;;;5.90;80.80;;;;;;5016447;28;20065;-72
2023/04/07 03:20:48;;;;;;;10.90;6.70;;;5.90;81.30;;;;;;5015581;28;20029;-73
2023/04/07 03:23:14;;;;;;;8.82;6.00;;;5.90;81.30;;;;;;5019310;28;20088;-72
2023/04/07 03:25:40;;;;;;;10.23;6.38;;;5.90;81.50;;;;;;5013462;28;20517;-74
2023/04/07 03:28:06;;;;;;;8.48;5.70;;;5.80;81.70;;;;;;5012700;28;20022;-73
2023/04/07 03:30:31;;;;;;;9.20;6.07;;;5.90;81.90;;;;;;5018952;28;20037;-74
2023/04/07 03:32:57;;;;;;;9.93;6.40;;;5.80;81.80;;;;;;5016375;28;20061;-72
2023/04/07 03:35:23;;;;;;;9.48;6.18;;;5.80;82.20;;;;;;5015003;28;20037;-71
2023/04/07 03:37:50;;;;;;;8.70;5.78;;;5.90;82.20;;;;;;4998033;28;20064;-71
2023/04/07 03:40:15;;;;;;;10.95;6.65;;;5.80;82.50;;;;;;5018114;28;20813;-74
2023/04/07 03:42:42;;;;;;;13.32;6.20;;;5.80;82.30;;;;;;5014266;28;20145;-73
2023/04/07 03:45:08;;;;;;;9.57;6.28;;;5.80;82.20;;;;;;5014149;28;20029;-73
2023/04/07 03:47:34;;;;;;;9.88;5.97;;;5.80;83.20;;;;;;5016394;28;20037;-72
2023/04/07 03:50:00;;;;;;;10.38;6.60;;;5.70;83.20;;;;;;5015009;28;20026;-72
2023/04/07 03:52:25;;;;;;;8.63;5.40;;;5.70;83.50;;;;;;5017729;28;20025;-74
2023/04/07 03:54:51;;;;;;;8.63;6.00;;;5.70;83.40;;;;;;5013635;28;20164;-72
2023/04/07 03:57:17;;;;;;;10.60;6.28;;;5.80;83.40;;;;;;5015797;28;20037;-75
2023/04/07 03:59:44;;;;;;;9.52;6.15;;;5.80;83.40;;;;;;5009293;28;20494;-77
2023/04/07 04:02:10;;;;;;;12.57;6.07;;;5.70;83.60;;;;;;5016803;28;20358;-76
2023/04/07 04:04:36;;;;;;;9.68;6.60;;;5.70;83.80;;;;;;5016109;28;20041;-74
2023/04/07 04:07:02;;;;;;;9.30;6.20;;;5.60;83.90;;;;;;5016412;28;20063;-71
2023/04/07 04:09:28;;;;;;;9.20;5.95;;;5.60;83.60;;;;;;5015063;28;20439;-72
2023/04/07 04:11:55;;;;;;;11.65;5.78;;;5.60;83.60;;;;;;5014315;28;20024;-72
2023/04/07 04:14:21;;;;;;;8.40;6.00;;;5.60;83.90;;;;;;5015361;28;20037;-72
2023/04/07 04:16:47;;;;;;;8.32;5.68;;;5.60;83.50;;;;;;5014282;28;20025;-71
2023/04/07 04:19:12;;;;;;;9.13;5.90;;;5.60;83.70;;;;;;5012541;28;20083;-71
2023/04/07 04:21:38;;;;;;;10.77;6.32;;;5.70;83.90;;;;;;5010663;28;20029;-74
2023/04/07 04:24:04;;;;;;;8.45;5.97;;;5.60;83.50;;;;;;5015835;28;20029;-76
2023/04/07 04:26:30;;;;;;;9.52;6.10;;;5.60;84.00;;;;;;4995033;28;20094;-72
2023/04/07 04:28:56;;;;;;;9.57;5.80;;;5.60;83.40;;;;;;5015903;28;20042;-72
2023/04/07 04:31:21;;;;;;;9.02;6.10;;;5.60;83.60;;;;;;5020247;28;20065;-74
2023/04/07 04:33:48;;;;;;;8.88;5.68;;;5.60;83.60;;;;;;5016713;28;20113;-74
2023/04/07 04:36:14;;;;;;;10.27;6.45;;;5.50;83.80;;;;;;5016329;28;20032;-73
2023/04/07 04:38:40;;;;;;;10.07;6.07;;;5.60;83.60;;;;;;5052193;28;20079;-71
2023/04/07 04:41:05;;;;;;;8.73;5.57;;;5.60;83.70;;;;;;5016896;28;20033;-73
2023/04/07 04:43:31;;;;;;;9.70;5.57;;;5.50;83.80;;;;;;5020632;28;20394;-72
2023/04/07 04:45:58;;;;;;;10.07;6.00;;;5.50;84.20;;;;;;5019993;28;20386;-71
2023/04/07 04:48:24;;;;;;;9.07;6.38;;;5.50;84.10;;;;;;5018762;28;20216;-73
2023/04/07 04:50:49;;;;;;;8.73;5.53;;;5.50;84.00;;;;;;5018979;28;20025;-74
2023/04/07 04:53:15;;;;;;;7.78;4.93;;;5.50;84.10;;;;;;5018583;28;20064;-72
2023/04/07 04:55:45;;;;;;;10.88;5.97;;;5.50;84.50;;;;;;5019196;28;20129;-72
2023/04/07 04:58:11;;;;;;;10.02;5.65;;;5.50;84.40;;;;;;5015891;28;20021;-73
2023/04/07 05:00:37;;;;;;;9.35;6.05;;;5.50;83.90;;;;;;5017625;28;20033;-72
2023/04/07 05:03:03;;;;;;;13.20;6.03;;;5.50;83.70;;;;;;5022335;28;20026;-75
2023/04/07 05:05:28;;;;;;;9.35;5.45;;;5.40;84.30;;;;;;5018457;28;20033;-73
2023/04/07 05:07:55;;;;;;;9.52;5.60;;;5.40;84.50;;;;;;5017756;28;20112;-73
2023/04/07 05:10:20;;;;;;;9.27;5.53;;;5.40;84.40;;;;;;5047190;28;20434;-73
2023/04/07 05:12:46;;;;;;;8.85;5.63;;;5.50;84.50;;;;;;5013550;28;20072;-77
2023/04/07 05:15:14;;;;;;;8.48;5.63;;;5.50;84.10;;;;;;5016534;28;20060;-74
2023/04/07 05:17:40;;;;;;;8.38;5.65;;;5.50;84.40;;;;;;5016320;28;20034;-75
2023/04/07 05:20:08;;;;;;;10.77;5.35;;;5.50;84.40;;;;;;5015697;28;20029;-71
2023/04/07 05:22:35;;;;;;;10.30;6.18;;;5.50;84.00;;;;;;5017517;28;20410;-72
2023/04/07 05:25:01;;;;;;;9.13;5.00;;;5.50;84.20;;;;;;5015287;28;20084;-72
2023/04/07 05:27:27;;;;;;;9.68;5.53;;;5.50;84.40;;;;;;5017490;28;20192;-74
2023/04/07 05:29:52;;;;;;;10.35;5.53;;;5.60;84.30;;;;;;5016445;28;20140;-72
2023/04/07 05:32:18;;;;;;;10.75;6.03;;;5.60;84.30;;;;;;5015920;28;20397;-72
2023/04/07 05:34:44;;;;;;;8.80;5.20;;;5.50;84.60;;;;;;5015450;28;20038;-74
2023/04/07 05:37:10;;;;;;;8.02;5.53;;;5.60;84.10;;;;;;4998729;28;20597;-72
2023/04/07 05:39:35;;;;;;;9.60;5.95;;;5.60;84.40;;;;;;5014379;28;20470;-72
2023/04/07 05:42:01;;;;;;;10.95;6.50;;;5.60;84.50;;;;;;5019746;28;20022;-76
2023/04/07 05:44:28;;;;;;;8.45;5.60;;;5.60;83.90;;;;;;5032733;28;20108;-72
2023/04/07 05:46:54;;;;;;;8.10;5.45;;;5.70;84.80;;;;;;5048679;28;20176;-72
2023/04/07 05:49:20;;;;;;;7.15;5.00;;;5.70;84.60;;;;;;4998953;28;20463;-72
2023/04/07 05:51:46;;;;;;;7.00;4.85;;;5.70;84.00;;;;;;5017872;28;20662;-72
2023/04/07 05:54:11;;;;;;;9.43;5.53;;;5.70;84.00;;;;;;5016517;28;20071;-73
2023/04/07 05:56:37;;;;;;;8.98;5.63;;;5.80;83.60;;;;;;5012251;28;20493;-73
2023/04/07 05:59:03;;;;;;;8.27;4.95;;;5.80;83.40;;;;;;5008817;28;20029;-73
2023/04/07 06:01:29;;;;;;;9.13;5.40;;;5.80;83.60;;;;;;5047713;28;20112;-73
2023/04/07 06:03:55;;;;;;;9.32;5.28;;;5.90;83.40;;;;;;5013723;28;20504;-70
2023/04/07 06:06:20;;;;;;;9.40;5.82;;;5.90;83.90;;;;;;5012444;28;20049;-72
2023/04/07 06:08:46;;;;;;;10.02;4.95;;;6.00;83.40;;;;;;5014546;28;21598;-72
2023/04/07 06:11:12;;;;;;;11.52;5.35;;;6.00;83.30;;;;;;5014436;28;20032;-72
2023/04/07 06:13:37;;;;;;;8.32;5.00;;;6.00;83.50;;;;;;5013864;28;20030;-71
2023/04/07 06:16:05;;;;;;;10.20;5.90;;;6.00;83.00;;;;;;5014243;28;20025;-74
2023/04/07 06:18:30;;;;;;;9.32;5.97;;;6.10;83.60;;;;;;5015467;28;20113;-74
2023/04/07 06:20:56;;;;;;;10.93;5.22;;;6.60;88.60;;;;;;5016691;28;20121;-72
2023/04/07 06:23:22;;;;;;;9.50;5.25;;;6.40;84.00;;;;;;5017292;28;20068;-74
2023/04/07 06:25:51;;;;;;;9.48;5.15;;;6.30;83.50;;;;;;5046209;28;20025;-72
2023/04/07 06:28:17;;;;;;;7.50;5.18;;;6.30;83.70;;;;;;5019332;28;20041;-72
2023/04/07 06:30:43;;;;;;;8.38;5.55;;;6.20;83.20;;;;;;5021668;28;20042;-71
2023/04/07 06:33:09;;;;;;;7.82;5.00;;;6.20;84.20;;;;;;5018602;28;20095;-73
2023/04/07 06:35:35;;;;;;;8.43;5.22;;;6.30;84.00;;;;;;5016732;28;20022;-72
2023/04/07 06:38:01;;;;;;;9.13;5.18;;;6.30;84.40;;;;;;5015215;28;20128;-72
2023/04/07 06:40:27;;;;;;;8.38;5.28;;;6.30;84.30;;;;;;5013643;28;20068;-72
2023/04/07 06:42:53;;;;;;;9.55;5.70;;;6.40;83.70;;;;;;5013352;28;20042;-72
2023/04/07 06:45:19;;;;;;;12.75;5.97;;;6.40;83.80;;;;;;5013037;28;20037;-72
2023/04/07 06:47:45;;;;;;;11.50;6.43;;;6.40;82.70;;;;;;5015171;28;20040;-73
2023/04/07 06:50:11;;;;;;;9.00;5.30;;;6.30;83.10;;;;;;5016704;28;20025;-73
2023/04/07 06:52:36;;;;;;;8.25;5.80;;;6.40;82.90;;;;;;5010688;28;21739;-73
2023/04/07 06:55:02;;;;;;;8.10;5.22;;;6.50;82.90;;;;;;5006716;28;20502;-72
2023/04/07 06:57:28;;;;;;;8.90;5.45;;;6.50;82.80;;;;;;5013224;28;20036;-72
2023/04/07 06:59:54;;;;;;;9.18;6.28;;;6.50;82.20;;;;;;5013202;28;20417;-72
2023/04/07 07:02:20;;;;;;;9.95;6.25;;;6.50;82.00;;;;;;5014183;28;20033;-74
2023/04/07 07:04:45;;;;;;;10.35;5.88;;;6.50;82.30;;;;;;5016211;28;20375;-75
2023/04/07 07:07:11;;;;;;;10.70;5.93;;;6.60;81.60;;;;;;5012003;28;20046;-75
2023/04/07 07:09:37;;;;;;;8.60;5.35;;;6.60;81.00;;;;;;5015337;28;20033;-74
2023/04/07 07:12:05;;;;;;;8.98;5.20;;;6.70;81.90;;;;;;5014504;28;20041;-74
2023/04/07 07:14:30;;;;;;;9.52;5.88;;;6.70;81.10;;;;;;4998790;28;20037;-72
2023/04/07 07:16:56;;;;;;;10.63;5.78;;;6.80;81.40;;;;;;5015663;28;20030;-72
2023/04/07 07:19:22;;;;;;;9.65;6.03;;;6.90;80.50;;;;;;5014991;28;20057;-72
2023/04/07 07:21:47;;;;;;;12.45;6.45;;;6.90;80.00;;;;;;5014932;28;20148;-72
2023/04/07 07:24:14;;;;;;;8.05;5.22;;;7.70;82.70;;;;;;5013268;28;20088;-73
2023/04/07 07:26:40;;;;;;;10.65;5.18;;;7.50;80.30;;;;;;5014988;28;20049;-72
2023/04/07 07:29:06;;;;;;;17.60;6.15;;;7.40;80.60;;;;;;5016626;28;20462;-72
2023/04/07 07:31:32;;;;;;;8.73;5.47;;;7.30;80.20;;;;;;5013387;28;20033;-75
2023/04/07 07:33:57;;;;;;;10.70;5.78;;;7.30;80.20;;;;;;5013213;28;20084;-77
2023/04/07 07:36:23;;;;;;;9.40;5.22;;;7.30;79.80;;;;;;4995721;28;20136;-72
2023/04/07 07:38:50;;;;;;;8.70;5.63;;;7.40;79.40;;;;;;5013910;28;20034;-73
2023/04/07 07:41:17;;;;;;;9.60;5.70;;;7.40;78.60;;;;;;5013705;28;20103;-73
2023/04/07 07:43:42;;;;;;;10.27;5.30;;;7.40;79.30;;;;;;5013955;28;20041;-72
2023/04/07 07:46:08;;;;;;;9.70;6.32;;;7.50;78.50;;;;;;5012745;28;20041;-72
2023/04/07 07:48:34;;;;;;;8.75;5.47;;;7.50;76.80;;;;;;5014172;28;20060;-73
2023/04/07 07:51:00;;;;;;;8.18;5.75;;;7.60;76.20;;;;;;5012441;28;20464;-72
2023/04/07 07:53:25;;;;;;;9.20;5.68;;;7.60;76.40;;;;;;5013556;28;20568;-78
2023/04/07 07:55:51;;;;;;;9.93;5.93;;;7.60;75.00;;;;;;5010709;28;20048;-72
2023/04/07 07:58:17;;;;;;;8.73;5.50;;;7.70;76.50;;;;;;5027861;28;20048;-76
2023/04/07 08:00:43;;;;;;;8.50;4.75;;;7.80;74.90;;;;;;4995458;28;20103;-75
2023/04/07 08:03:09;;;;;;;9.50;5.65;;;7.80;75.60;;;;;;5000204;28;20034;-76
2023/04/07 08:05:37;;;;;;;11.25;5.30;;;7.80;75.10;;;;;;5015147;28;20040;-74
2023/04/07 08:08:03;;;;;;;10.77;6.15;;;8.00;73.70;;;;;;5016911;28;20033;-76
2023/04/07 08:10:28;;;;;;;11.27;5.32;;;8.00;74.00;;;;;;4996803;28;20040;-77
2023/04/07 08:12:54;;;;;;;10.45;5.38;;;8.10;73.00;;;;;;5013422;28;20025;-74
2023/04/07 08:15:20;;;;;;;12.00;6.03;;;8.10;73.40;;;;;;5029938;28;20026;-74
2023/04/07 08:17:46;;;;;;;8.50;5.75;;;8.10;73.70;;;;;;5032195;28;20025;-75
2023/04/07 08:20:12;;;;;;;13.43;5.57;;;8.10;72.70;;;;;;5017475;28;20040;-75
2023/04/07 08:22:37;;;;;;;8.30;5.43;;;8.10;71.90;;;;;;5021103;28;20518;-75
2023/04/07 08:25:04;;;;;;;8.35;4.88;;;8.10;72.00;;;;;;5002883;28;20036;-74
2023/04/07 08:27:30;;;;;;;8.15;4.95;;;8.20;72.20;;;;;;5017944;28;20634;-79
2023/04/07 08:30:05;;;;;;;9.80;5.15;;;8.20;72.00;;;;;;5020882;28;20037;-74
2023/04/07 08:32:41;;;;;;;7.50;4.72;;;8.30;71.60;;;;;;5000467;28;20445;-74
2023/04/07 08:35:08;;;;;;;7.50;4.53;;;8.30;72.40;;;;;;5019485;28;20358;-76
2023/04/07 08:37:34;;;;;;;8.18;4.90;;;8.40;72.40;;;;;;5019876;28;20022;-78
2023/04/07 08:40:00;;;;;;;8.00;4.82;;;8.50;71.60;;;;;;5002011;28;20034;-76
2023/04/07 08:42:28;;;;;;;8.20;5.00;;;8.60;71.00;;;;;;5017186;28;20532;-74
2023/04/07 08:45:02;;;;;;;9.80;4.70;;;8.70;69.70;;;;;;5002761;28;20029;-74
2023/04/07 08:47:32;;;;;;;8.45;5.28;;;8.60;69.30;;;;;;5019070;28;20025;-75
2023/04/07 08:50:01;;;;;;;8.00;5.05;;;8.50;68.90;;;;;;5029442;28;20348;-74
2023/04/07 08:52:34;;;;;;;7.85;4.60;;;8.50;69.00;;;;;;5017883;28;20040;-76
2023/04/07 08:55:02;;;;;;;9.05;4.57;;;8.50;69.70;;;;;;5029852;28;20025;-74
2023/04/07 08:57:32;;;;;;;7.63;4.47;;;8.60;69.10;;;;;;5017722;28;20033;-77
2023/04/07 09:00:04;;;;;;;8.32;5.07;;;8.60;68.90;;;;;;5015734;28;20033;-76
2023/04/07 09:02:39;;;;;;;9.65;4.82;;;8.70;68.20;;;;;;5017531;28;20124;-74
2023/04/07 09:05:07;;;;;;;8.43;4.68;;;8.80;66.70;;;;;;5016721;28;20544;-73
2023/04/07 09:07:34;;;;;;;8.57;5.05;;;8.80;67.30;;;;;;5018632;28;20053;-73
2023/04/07 09:10:01;;;;;;;9.90;5.60;;;8.80;67.90;;;;;;5009229;28;20102;-72
2023/04/07 09:12:28;;;;;;;8.82;5.05;;;9.00;67.30;;;;;;5017083;28;20084;-72
2023/04/07 09:14:54;;;;;;;8.05;4.50;;;9.00;66.80;;;;;;5011993;28;20025;-73
2023/04/07 09:17:20;;;;;;;8.90;4.60;;;9.20;67.10;;;;;;5015402;28;20076;-72
2023/04/07 09:19:47;;;;;;;8.88;5.10;;;9.30;67.30;;;;;;5019572;28;20034;-73
2023/04/07 09:22:13;;;;;;;6.95;4.80;;;9.40;66.80;;;;;;5013811;28;20087;-77
2023/04/07 09:24:41;;;;;;;7.72;4.60;;;9.40;66.10;;;;;;5048606;28;20364;-73
2023/04/07 09:27:17;;;;;;;10.02;4.80;;;9.50;66.50;;;;;;5009841;28;20040;-76
2023/04/07 09:29:47;;;;;;;11.25;5.20;;;9.50;65.90;;;;;;5011178;28;20038;-75
2023/04/07 09:32:40;;;;;;;9.25;5.38;;;9.50;65.20;;;;;;5016587;28;20083;-74
2023/04/07 09:35:06;;;;;;;8.63;5.20;;;9.60;64.20;;;;;;5050652;28;20025;-73
2023/04/07 09:37:32;;;;;;;9.07;5.15;;;9.50;63.70;;;;;;5019096;28;20017;-74
2023/04/07 09:39:59;;;;;;;7.85;5.15;;;9.50;64.10;;;;;;5015668;28;20536;-75
2023/04/07 09:42:25;;;;;;;8.10;5.18;;;9.60;63.80;;;;;;5014331;28;20373;-80
2023/04/07 09:44:51;;;;;;;9.23;4.90;;;9.60;63.50;;;;;;4996951;28;20682;-73
2023/04/07 09:47:17;;;;;;;7.97;5.07;;;9.70;63.80;;;;;;5014676;28;20108;-75
2023/04/07 09:49:52;;;;;;;7.25;5.25;;;9.80;63.60;;;;;;5014008;28;20145;-76
2023/04/07 09:52:19;;;;;;;10.50;5.32;;;9.90;63.60;;;;;;5046663;28;20029;-77
2023/04/07 09:54:46;;;;;;;9.73;6.07;;;9.90;63.50;;;;;;5016447;28;20749;-74
2023/04/07 09:57:13;;;;;;;9.82;5.20;;;10.00;63.60;;;;;;5015106;28;20497;-74
2023/04/07 09:59:41;;;;;;;9.43;5.20;;;10.10;62.70;;;;;;5021220;28;20057;-79
2023/04/07 10:02:07;;;;;;;8.30;5.65;;;10.10;63.70;;;;;;5022233;28;20332;-73
2023/04/07 10:04:33;;;;;;;10.75;5.75;;;10.10;63.00;;;;;;5016275;28;20155;-78
2023/04/07 10:06:59;;;;;;;9.57;6.13;;;10.10;60.40;;;;;;5015885;28;20108;-76
2023/04/07 10:09:29;;;;;;;9.35;5.82;;;10.00;61.20;;;;;;5012757;28;20238;-79
2023/04/07 10:11:57;;;;;;;9.45;5.47;;;10.00;61.40;;;;;;5018353;28;20083;-73
2023/04/07 10:14:27;;;;;;;9.82;6.05;;;10.00;61.70;;;;;;5008714;28;20095;-73
2023/04/07 10:16:53;;;;;;;9.37;5.33;;;10.00;61.30;;;;;;5016956;28;20054;-73
2023/04/07 10:19:20;;;;;;;8.73;5.78;;;10.00;61.00;;;;;;5016277;28;20029;-75
2023/04/07 10:21:49;;;;;;;7.95;5.63;;;10.00;60.60;;;;;;5016627;28;20045;-75
2023/04/07 10:24:43;;;;;;;7.85;4.43;;;10.10;61.70;;;;;;5016314;28;20099;-75
2023/04/07 10:27:13;;;;;;;12.10;5.25;;;10.20;61.10;;;;;;5016521;28;20026;-74
2023/04/07 10:29:50;;;;;;;6.85;4.35;;;10.40;60.80;;;;;;5014317;28;20358;-74
2023/04/07 10:32:16;;;;;;;9.25;4.15;;;10.50;61.10;;;;;;5011862;28;20022;-74
2023/04/07 10:34:53;;;;;;;7.75;4.63;;;10.40;56.70;;;;;;5012460;28;20056;-75
2023/04/07 10:37:21;;;;;;;8.93;4.72;;;10.30;56.50;;;;;;5049478;28;20022;-74
2023/04/07 10:39:47;;;;;;;7.43;4.38;;;10.30;58.20;;;;;;5012174;28;20116;-75
2023/04/07 10:42:38;;;;;;;9.20;4.30;;;10.30;57.20;;;;;;5019552;28;20034;-74
2023/04/07 10:45:08;;;;;;;8.35;4.20;;;10.30;56.60;;;;;;5016171;28;20401;-73
2023/04/07 10:47:56;;;;;;;6.40;4.10;;;10.20;57.10;;;;;;5015132;28;20495;-73
2023/04/07 10:50:23;;;;;;;6.78;3.92;;;10.20;54.80;;;;;;5028168;28;20506;-73
2023/04/07 10:53:09;;;;;;;7.35;4.57;;;10.40;54.60;;;;;;5014851;28;20033;-74
2023/04/07 10:55:43;;;;;;;7.10;4.55;;;10.60;55.80;;;;;;5008569;28;20017;-74
2023/04/07 10:58:12;;;;;;;9.82;5.15;;;10.60;56.90;;;;;;5018245;28;20026;-74
2023/04/07 11:00:38;;;;;;;10.63;4.88;;;10.70;56.80;;;;;;5020360;28;20038;-74
2023/04/07 11:03:13;;;;;;;7.28;4.50;;;10.80;56.90;;;;;;5017390;28;20108;-75
2023/04/07 11:05:42;;;;;;;5.80;4.07;;;11.00;57.10;;;;;;5015512;28;20445;-65
2023/04/07 11:08:08;;;;;;;5.22;3.90;;;11.30;56.10;;;;;;5015561;28;20088;-68
2023/04/07 11:10:35;;;;;;;7.55;3.55;;;11.80;56.20;;;;;;5015988;28;20435;-69
2023/04/07 11:13:06;;;;;;;8.00;4.15;;;12.80;54.20;;;;;;5017058;28;20449;-68
2023/04/07 11:15:36;;;;;;;8.00;4.90;;;14.20;52.10;;;;;;5001327;28;20030;-68
2023/04/07 11:18:19;;;;;;;6.50;4.37;;;15.30;49.80;;;;;;5019121;28;20615;-68
2023/04/07 11:20:52;;;;;;;9.68;5.07;;;16.80;48.40;;;;;;5008188;28;20342;-70
2023/04/07 11:23:20;;;;;;;7.22;4.50;;;16.50;46.80;;;;;;5016655;28;20092;-71
2023/04/07 11:25:48;;;;;;;6.90;4.95;;;16.70;45.90;;;;;;5009399;28;20157;-70
2023/04/07 11:28:14;;;;;;;6.47;4.57;;;17.20;45.70;;;;;;5013875;28;21280;-70
2023/04/07 11:30:50;;;;;;;6.03;4.45;;;17.70;46.80;;;;;;5036992;28;20076;-67
2023/04/07 11:33:21;;;;;;;8.10;4.85;;;17.70;44.50;;;;;;5007443;28;20034;-69
2023/04/07 11:36:01;;;;;;;6.00;4.40;;;17.90;45.30;;;;;;5006372;28;20135;-69
2023/04/07 11:38:34;;;;;;;7.40;5.00;;;18.10;42.70;;;;;;5016987;28;20030;-65
2023/04/07 11:41:15;;;;;;;7.88;5.07;;;17.10;45.10;;;;;;5019922;28;20111;-65
2023/04/07 11:43:41;;;;;;;5.95;4.50;;;16.80;45.50;;;;;;5020471;28;20033;-68
2023/04/07 11:46:13;;;;;;;6.78;4.47;;;16.50;46.70;;;;;;5025056;28;20037;-66
2023/04/07 11:48:41;;;;;;;5.70;4.47;;;16.30;47.80;;;;;;5011804;28;20046;-70
2023/04/07 11:51:19;;;;;;;7.22;4.50;;;15.70;48.30;;;;;;5020715;28;20041;-76
2023/04/07 11:53:46;;;;;;;7.45;4.35;;;15.50;48.70;;;;;;5010565;28;21240;-71
2023/04/07 11:56:16;;;;;;;7.25;4.20;;;15.30;48.50;;;;;;5009522;28;20091;-78
2023/04/07 11:58:52;;;;;;;7.20;4.20;;;15.00;48.20;;;;;;5005818;28;20126;-76
2023/04/07 12:01:18;;;;;;;7.22;4.15;;;14.70;49.00;;;;;;5028656;28;20401;-76
2023/04/07 12:04:02;;;;;;;5.95;4.25;;;14.50;48.60;;;;;;5026680;28;20026;-78
2023/04/07 12:06:39;;;;;;;7.63;4.25;;;14.50;48.60;;;;;;5021729;28;20021;-74
2023/04/07 12:09:26;;;;;;;7.82;4.10;;;14.30;48.80;;;;;;5019116;28;20661;-74
2023/04/07 12:11:51;;;;;;;5.10;3.90;;;14.50;48.30;;;;;;5019993;28;20037;-74
2023/04/07 12:14:17;;;;;;;6.05;4.00;;;14.70;48.00;;;;;;5019548;28;20048;-74
2023/04/07 12:16:44;;;;;;;6.55;4.10;;;14.50;47.30;;;;;;5024038;28;20085;-72
2023/04/07 12:19:09;;;;;;;8.48;4.30;;;14.50;48.00;;;;;;5017837;28;20030;-72
2023/04/07 12:21:35;;;;;;;8.00;4.53;;;14.60;46.70;;;;;;5019140;28;20107;-73
2023/04/07 12:24:01;;;;;;;6.82;4.55;;;14.30;47.20;;;;;;5026088;28;20030;-74
2023/04/07 12:26:27;;;;;;;7.50;4.25;;;14.80;47.30;;;;;;5024906;28;20457;-74
2023/04/07 12:28:54;;;;;;;5.57;3.90;;;15.00;46.70;;;;;;5038710;28;20033;-75
2023/04/07 12:31:20;;;;;;;5.90;3.90;;;15.40;45.10;;;;;;5049348;28;20064;-73
2023/04/07 12:33:46;;;;;;;6.40;4.10;;;15.80;44.80;;;;;;5016822;28;20088;-68
2023/04/07 12:36:12;;;;;;;7.57;3.83;;;16.30;44.60;;;;;;5016236;28;20076;-73
2023/04/07 12:38:37;;;;;;;5.68;3.83;;;16.40;43.90;;;;;;5009972;28;20038;-74
2023/04/07 12:41:03;;;;;;;8.48;3.92;;;16.90;43.30;;;;;;5014632;28;20032;-72
2023/04/07 12:43:29;;;;;;;6.20;3.88;;;17.40;42.60;;;;;;5017058;28;20043;-69
2023/04/07 12:45:56;;;;;;;4.47;3.55;;;17.20;41.40;;;;;;5017194;28;20034;-72
2023/04/07 12:48:22;;;;;;;6.13;3.70;;;16.90;42.00;;;;;;4995585;28;20025;-75
2023/04/07 12:50:48;;;;;;;5.63;3.10;;;17.20;41.90;;;;;;5011972;28;20061;-74
2023/04/07 12:53:14;;;;;;;5.35;3.30;;;17.40;41.20;;;;;;5017374;28;20106;-74